Time;durP1;ratioP1;P1;durP2;ratioP2;P2;SDS_P1;SDS_P2;PMS_P1;PMS_P2;Temp;Humidity;BMP_temperature;BMP_pressure;BME280_temperature;BME280_humidity;BME280_pressure;Samples;Min_cycle;Max_cycle;Signal;HPM_P1;HPM_P2
2022/04/30 00:02:07;;;;;;;30.90;16.25;;;;;;;5.02;100.00;102886.50;4936308;28;20068;-73
2022/04/30 00:04:40;;;;;;;28.10;16.55;;;;;;;5.05;100.00;102888.06;4954516;28;20033;-73
2022/04/30 00:07:06;;;;;;;25.45;16.35;;;;;;;5.03;100.00;102886.38;4955277;28;20041;-72
2022/04/30 00:09:32;;;;;;;24.88;15.60;;;;;;;5.10;100.00;102885.88;4943433;28;22134;-72
2022/04/30 00:11:58;;;;;;;33.58;17.02;;;;;;;5.10;100.00;102881.38;4955419;28;20053;-73
2022/04/30 00:14:24;;;;;;;32.50;16.52;;;;;;;5.11;100.00;102876.88;4938359;28;20327;-72
2022/04/30 00:16:50;;;;;;;29.10;15.77;;;;;;;5.15;100.00;102870.28;4937512;28;20041;-73
2022/04/30 00:19:15;;;;;;;31.20;16.20;;;;;;;5.14;100.00;102865.94;4954187;28;20489;-73
2022/04/30 00:21:41;;;;;;;29.45;16.75;;;;;;;5.22;100.00;102863.47;4935108;28;20381;-73
2022/04/30 00:24:07;;;;;;;26.08;15.23;;;;;;;5.15;100.00;102867.63;4940277;28;20060;-73
2022/04/30 00:26:32;;;;;;;26.77;14.95;;;;;;;5.20;100.00;102866.28;4953660;28;20159;-73
2022/04/30 00:28:58;;;;;;;25.55;16.33;;;;;;;5.19;100.00;102863.72;4967108;28;20049;-73
2022/04/30 00:31:24;;;;;;;32.35;15.98;;;;;;;5.16;100.00;102863.97;4955928;28;20077;-73
2022/04/30 00:33:50;;;;;;;25.80;14.27;;;;;;;5.18;100.00;102862.03;4950543;28;20120;-73
2022/04/30 00:36:16;;;;;;;26.77;16.27;;;;;;;5.22;100.00;102868.81;4925577;28;20061;-73
2022/04/30 00:38:41;;;;;;;24.40;14.70;;;;;;;5.25;100.00;102857.88;4970424;28;20072;-73
2022/04/30 00:41:08;;;;;;;26.85;16.15;;;;;;;5.23;100.00;102859.84;4950198;28;20060;-73
2022/04/30 00:43:51;;;;;;;28.55;14.63;;;;;;;5.29;100.00;102850.44;4953333;28;20040;-72
2022/04/30 00:46:18;;;;;;;33.50;14.75;;;;;;;5.22;100.00;102847.44;4937337;28;20243;-73
2022/04/30 00:48:44;;;;;;;22.52;14.02;;;;;;;5.22;100.00;102858.97;4950266;28;20041;-73
2022/04/30 00:51:20;;;;;;;26.83;13.82;;;;;;;5.21;100.00;102843.06;4950543;28;20041;-73
2022/04/30 00:53:49;;;;;;;26.95;13.82;;;;;;;5.15;100.00;102849.75;4948551;28;20184;-73
2022/04/30 00:56:16;;;;;;;23.90;12.60;;;;;;;5.12;100.00;102849.19;4970788;28;20068;-73
2022/04/30 00:58:45;;;;;;;22.60;14.15;;;;;;;5.13;100.00;102842.88;4936524;28;20106;-72
2022/04/30 01:01:11;;;;;;;29.65;14.23;;;;;;;5.14;100.00;102839.22;4937216;28;21080;-71
2022/04/30 01:03:37;;;;;;;22.00;13.85;;;;;;;5.11;100.00;102850.16;4935946;28;20057;-71
2022/04/30 01:06:03;;;;;;;26.67;14.40;;;;;;;5.09;100.00;102841.41;4969409;28;20046;-71
2022/04/30 01:08:29;;;;;;;30.48;14.68;;;;;;;5.07;100.00;102838.03;4935851;28;20444;-71
2022/04/30 01:10:55;;;;;;;27.27;15.07;;;;;;;5.00;100.00;102827.00;4953604;28;20053;-71
2022/04/30 01:13:21;;;;;;;25.38;13.77;;;;;;;4.93;100.00;102837.34;4946890;28;20057;-72
2022/04/30 01:15:46;;;;;;;25.50;13.88;;;;;;;4.90;100.00;102832.25;4957253;28;20657;-72
2022/04/30 01:18:12;;;;;;;29.65;14.93;;;;;;;4.88;100.00;102834.22;4947780;28;20029;-72
2022/04/30 01:20:46;;;;;;;29.70;14.88;;;;;;;4.91;100.00;102825.94;4933605;28;20468;-71
2022/04/30 01:23:13;;;;;;;28.42;14.50;;;;;;;4.92;100.00;102816.97;4968775;28;20040;-72
2022/04/30 01:25:38;;;;;;;26.63;14.75;;;;;;;5.02;100.00;102819.72;4940971;28;20099;-72
2022/04/30 01:28:04;;;;;;;24.02;13.32;;;;;;;5.13;100.00;102816.16;4953156;28;20123;-71
2022/04/30 01:30:29;;;;;;;22.73;12.85;;;;;;;5.15;100.00;102808.84;4936894;28;20052;-72
2022/04/30 01:38:23;;;;;;;23.83;12.90;;;;;;;5.17;100.00;102801.56;4957457;28;20045;-72
2022/04/30 01:40:49;;;;;;;21.95;13.68;;;;;;;5.11;100.00;102810.94;4966848;28;20084;-72
2022/04/30 01:43:15;;;;;;;17.20;11.63;;;;;;;5.06;100.00;102809.63;4934804;28;20053;-72
2022/04/30 01:45:42;;;;;;;25.75;13.55;;;;;;;5.06;100.00;102809.63;4947943;28;20120;-72
2022/04/30 01:48:12;;;;;;;23.88;13.55;;;;;;;5.11;100.00;102807.41;4939686;28;20050;-72
2022/04/30 01:50:38;;;;;;;23.58;13.60;;;;;;;5.09;100.00;102806.69;4968249;28;20041;-72
2022/04/30 01:53:03;;;;;;;18.25;13.23;;;;;;;5.12;100.00;102788.56;4950872;28;20176;-72
2022/04/30 01:55:29;;;;;;;19.67;11.45;;;;;;;5.25;100.00;102793.75;4969598;28;20038;-72
2022/04/30 01:57:55;;;;;;;18.45;12.65;;;;;;;5.30;100.00;102796.88;4952011;28;20196;-72
2022/04/30 02:00:20;;;;;;;21.33;12.85;;;;;;;5.36;100.00;102796.34;4969271;28;20089;-71
2022/04/30 02:02:51;;;;;;;23.70;11.80;;;;;;;5.34;100.00;102792.97;4953876;28;20038;-72
2022/04/30 02:05:18;;;;;;;21.63;11.75;;;;;;;5.29;100.00;102789.81;4953811;28;20053;-71
2022/04/30 02:07:58;;;;;;;24.50;11.80;;;;;;;5.24;100.00;102786.72;4952708;28;20040;-71
2022/04/30 02:10:24;;;;;;;18.45;11.80;;;;;;;5.22;100.00;102788.66;4953628;28;20050;-72
2022/04/30 02:12:53;;;;;;;21.90;11.68;;;;;;;5.21;100.00;102787.81;4950669;28;20255;-72
2022/04/30 02:15:19;;;;;;;23.85;12.20;;;;;;;5.16;100.00;102789.16;4952543;28;20049;-72
2022/04/30 02:17:46;;;;;;;21.88;11.35;;;;;;;5.09;100.00;102790.66;4967118;28;20366;-72
2022/04/30 02:20:19;;;;;;;22.83;11.63;;;;;;;5.08;100.00;102781.81;4918499;28;20049;-72
2022/04/30 02:22:45;;;;;;;18.70;11.68;;;;;;;5.10;100.00;102779.00;4954883;28;20080;-72
2022/04/30 02:25:13;;;;;;;17.23;11.65;;;;;;;5.14;100.00;102769.75;4966097;28;20059;-72
2022/04/30 02:27:40;;;;;;;24.45;12.00;;;;;;;5.11;100.00;102775.34;4940243;28;20057;-72
2022/04/30 02:30:07;;;;;;;25.33;11.95;;;;;;;5.21;100.00;102781.63;4969520;28;20030;-72
2022/04/30 02:32:46;;;;;;;23.85;12.35;;;;;;;5.20;100.00;102769.25;4939434;28;20064;-71
2022/04/30 02:35:19;;;;;;;24.27;11.25;;;;;;;5.24;100.00;102765.34;4967743;28;20060;-71
2022/04/30 02:37:45;;;;;;;19.50;10.70;;;;;;;5.25;100.00;102756.34;4934252;28;20541;-71
2022/04/30 02:40:14;;;;;;;20.58;11.23;;;;;;;5.19;100.00;102757.69;4968016;28;20825;-71
2022/04/30 02:42:44;;;;;;;17.33;10.93;;;;;;;5.13;100.00;102762.72;4936757;28;20060;-71
2022/04/30 02:45:11;;;;;;;19.02;11.20;;;;;;;5.01;100.00;102754.75;4952388;28;20033;-71
2022/04/30 02:47:41;;;;;;;21.58;11.77;;;;;;;4.92;100.00;102758.22;4943749;28;20132;-72
2022/04/30 02:50:08;;;;;;;18.55;11.20;;;;;;;4.88;100.00;102754.13;4953850;28;20041;-71
2022/04/30 02:52:34;;;;;;;26.80;11.70;;;;;;;4.89;100.00;102755.81;4950781;28;20158;-71
2022/04/30 02:55:00;;;;;;;22.27;11.65;;;;;;;4.87;100.00;102760.41;4933017;28;22647;-71
2022/04/30 02:57:27;;;;;;;18.20;11.75;;;;;;;4.78;100.00;102755.88;4965354;28;20175;-71
2022/04/30 02:59:55;;;;;;;19.92;11.23;;;;;;;4.73;100.00;102758.03;4935174;28;20049;-72
2022/04/30 03:02:22;;;;;;;20.70;11.48;;;;;;;4.68;100.00;102754.94;4966736;28;20041;-71
2022/04/30 03:04:51;;;;;;;20.20;12.07;;;;;;;4.81;100.00;102752.94;4951690;28;20049;-72
2022/04/30 03:07:18;;;;;;;18.70;12.00;;;;;;;4.84;100.00;102758.00;4934714;28;20069;-71
2022/04/30 03:09:44;;;;;;;17.88;11.80;;;;;;;4.94;100.00;102748.25;4943863;28;20126;-72
2022/04/30 03:12:10;;;;;;;22.85;12.27;;;;;;;5.02;100.00;102736.94;4954044;28;20135;-72
2022/04/30 03:14:35;;;;;;;19.40;11.57;;;;;;;4.95;100.00;102739.28;4968421;28;22127;-72
2022/04/30 03:22:30;;;;;;;20.00;12.50;;;;;;;4.90;100.00;102736.13;4951910;28;20045;-71
2022/04/30 03:24:56;;;;;;;18.67;11.23;;;;;;;4.82;100.00;102737.75;4972023;28;20033;-71
2022/04/30 03:27:21;;;;;;;23.25;11.85;;;;;;;4.79;100.00;102739.69;4963432;28;20144;-72
2022/04/30 03:29:47;;;;;;;16.65;12.23;;;;;;;4.79;100.00;102736.19;4969284;28;20045;-71
2022/04/30 03:32:13;;;;;;;19.08;11.90;;;;;;;4.77;100.00;102730.13;4939313;28;20180;-72
2022/04/30 03:34:38;;;;;;;27.42;11.65;;;;;;;4.72;100.00;102727.00;4971054;28;20147;-71
2022/04/30 03:37:04;;;;;;;21.83;11.95;;;;;;;4.69;100.00;102729.91;4971745;28;20043;-71
2022/04/30 03:39:30;;;;;;;20.70;12.20;;;;;;;4.67;100.00;102730.06;4939008;28;20207;-72
2022/04/30 03:41:55;;;;;;;20.23;12.23;;;;;;;4.65;100.00;102720.47;4953808;28;20042;-72
2022/04/30 03:44:21;;;;;;;21.55;12.18;;;;;;;4.60;100.00;102722.66;4938987;28;20646;-72
2022/04/30 03:46:46;;;;;;;31.58;12.63;;;;;;;4.54;100.00;102724.88;4970260;28;20038;-72
2022/04/30 03:49:12;;;;;;;22.73;12.60;;;;;;;4.49;100.00;102719.09;4953170;28;20123;-72
2022/04/30 03:51:38;;;;;;;20.27;13.13;;;;;;;4.45;100.00;102712.28;4953970;28;20476;-72
2022/04/30 03:54:03;;;;;;;21.23;12.98;;;;;;;4.39;100.00;102712.81;4956329;28;20152;-72
2022/04/30 03:56:28;;;;;;;16.08;11.77;;;;;;;4.42;100.00;102704.56;4968107;28;20829;-72
2022/04/30 03:58:54;;;;;;;22.05;12.95;;;;;;;4.45;100.00;102714.97;4971079;28;20045;-72
2022/04/30 04:01:21;;;;;;;22.33;12.45;;;;;;;4.49;100.00;102711.09;4939390;28;20966;-71
2022/04/30 04:03:48;;;;;;;23.55;12.25;;;;;;;4.59;100.00;102711.16;4954877;28;20034;-72
2022/04/30 04:06:15;;;;;;;25.42;14.07;;;;;;;4.61;100.00;102714.53;4955529;28;20053;-72
2022/04/30 04:08:41;;;;;;;25.30;13.95;;;;;;;4.63;100.00;102711.72;4954016;28;20043;-73
2022/04/30 04:11:10;;;;;;;20.45;13.57;;;;;;;4.68;100.00;102709.53;4953605;28;20050;-71
2022/04/30 04:19:10;;;;;;;33.65;17.95;;;;;;;4.97;100.00;102699.91;4970098;28;20575;-71
2022/04/30 04:21:35;;;;;;;44.15;19.00;;;;;;;5.00;100.00;102715.69;4971127;28;20061;-72
2022/04/30 04:27:01;;;;;;;29.35;16.17;;;;;;;5.13;100.00;102720.00;4938922;28;20059;-71
2022/04/30 04:29:27;;;;;;;31.88;16.40;;;;;;;5.13;100.00;102714.66;4954149;28;20276;-71
2022/04/30 04:31:52;;;;;;;36.83;16.90;;;;;;;5.15;100.00;102716.19;4970223;28;20045;-71
2022/04/30 04:34:17;;;;;;;42.63;18.20;;;;;;;5.18;100.00;102707.06;4938148;28;20247;-71
2022/04/30 04:36:43;;;;;;;41.00;18.08;;;;;;;5.30;100.00;102711.38;4971626;28;20037;-71
2022/04/30 04:39:13;;;;;;;42.25;19.13;;;;;;;5.37;100.00;102709.88;4936051;28;21239;-71
2022/04/30 04:41:41;;;;;;;34.35;18.35;;;;;;;5.41;100.00;102708.59;4969816;28;20036;-71
2022/04/30 04:44:07;;;;;;;38.83;17.50;;;;;;;5.42;100.00;102710.28;4953686;28;20053;-71
2022/04/30 04:46:33;;;;;;;29.08;15.15;;;;;;;5.42;100.00;102704.94;4970245;28;20025;-71
2022/04/30 04:48:59;;;;;;;30.40;15.82;;;;;;;5.48;100.00;102715.13;4951530;28;20119;-71
2022/04/30 04:51:24;;;;;;;28.17;15.35;;;;;;;5.55;100.00;102719.94;4939318;28;20065;-72
2022/04/30 04:53:50;;;;;;;19.05;12.93;;;;;;;5.59;100.00;102710.66;4955779;28;20116;-71
2022/04/30 04:56:15;;;;;;;24.20;14.50;;;;;;;5.64;100.00;102708.41;4953172;28;22860;-71
2022/04/30 04:58:41;;;;;;;22.48;13.57;;;;;;;5.69;100.00;102706.19;4970561;28;20049;-71
2022/04/30 05:01:06;;;;;;;28.52;15.18;;;;;;;5.84;100.00;102712.84;4953186;28;20061;-71
2022/04/30 05:03:32;;;;;;;29.05;14.45;;;;;;;5.96;100.00;102709.09;4969611;28;21710;-71
2022/04/30 05:05:57;;;;;;;22.80;13.40;;;;;;;6.04;100.00;102715.59;4969517;28;20052;-71
2022/04/30 05:08:23;;;;;;;28.15;13.40;;;;;;;6.13;100.00;102706.75;4940961;28;20053;-74
2022/04/30 05:10:48;;;;;;;20.73;12.93;;;;;;;6.27;100.00;102713.53;4955227;28;20069;-72
2022/04/30 05:13:14;;;;;;;18.23;12.23;;;;;;;6.35;100.00;102719.91;4950017;28;20054;-72
2022/04/30 05:15:39;;;;;;;17.77;11.88;;;;;;;6.52;100.00;102725.53;4967278;28;20048;-71
2022/04/30 05:18:05;;;;;;;22.60;12.88;;;;;;;6.66;100.00;102722.44;4951248;28;20205;-72
2022/04/30 05:20:30;;;;;;;19.65;11.55;;;;;;;6.82;100.00;102727.25;4951140;28;20068;-72
2022/04/30 05:22:56;;;;;;;16.08;10.90;;;;;;;6.86;100.00;102724.13;4954087;28;21288;-72
2022/04/30 05:25:21;;;;;;;19.20;11.65;;;;;;;6.86;100.00;102724.13;4969597;28;21211;-71
2022/04/30 05:27:46;;;;;;;15.15;10.70;;;;;;;6.85;100.00;102726.97;4968474;28;20109;-71
2022/04/30 05:30:12;;;;;;;20.67;11.63;;;;;;;6.84;100.00;102728.78;4953949;28;23389;-71
2022/04/30 05:32:37;;;;;;;16.80;9.93;;;;;;;6.92;100.00;102738.81;4966856;28;20769;-72
2022/04/30 05:35:03;;;;;;;21.38;11.85;;;;;;;7.14;100.00;102733.13;4951851;28;20053;-72
2022/04/30 05:37:29;;;;;;;19.02;11.27;;;;;;;7.66;100.00;102732.69;4968129;28;23497;-71
2022/04/30 05:39:54;;;;;;;17.17;10.90;;;;;;;8.30;100.00;102729.09;4952652;28;20057;-72
2022/04/30 05:42:19;;;;;;;21.80;11.60;;;;;;;8.93;100.00;102724.66;4969928;28;20041;-72
2022/04/30 05:44:45;;;;;;;19.30;9.90;;;;;;;9.92;100.00;102729.59;4963887;28;20042;-72
2022/04/30 05:47:10;;;;;;;17.38;9.52;;;;;;;10.48;100.00;102725.41;4958571;28;20238;-72
2022/04/30 05:49:36;;;;;;;16.30;9.45;;;;;;;10.80;100.00;102729.13;4968964;28;20037;-71
2022/04/30 05:52:02;;;;;;;16.08;8.82;;;;;;;10.88;100.00;102734.53;4954088;28;20049;-71
2022/04/30 05:54:28;;;;;;;16.40;8.75;;;;;;;10.72;100.00;102736.22;4951889;28;20041;-72
2022/04/30 05:56:53;;;;;;;14.57;7.65;;;;;;;10.48;100.00;102736.19;4952930;28;20936;-71
2022/04/30 05:59:19;;;;;;;21.42;9.02;;;;;;;10.11;100.00;102737.44;4968768;28;20121;-72
2022/04/30 06:01:44;;;;;;;20.88;8.50;;;;;;;9.83;100.00;102741.34;4954529;28;20042;-72
2022/04/30 06:04:10;;;;;;;17.42;8.93;;;;;;;9.70;100.00;102739.09;4969956;28;20057;-72
2022/04/30 06:06:35;;;;;;;18.52;9.07;;;;;;;9.72;100.00;102734.38;4968878;28;20033;-72
2022/04/30 06:09:00;;;;;;;12.27;8.73;;;;;;;9.67;100.00;102734.03;4952923;28;20045;-72
2022/04/30 06:11:26;;;;;;;16.88;9.40;;;;;;;9.49;100.00;102742.19;4968245;28;20099;-72
2022/04/30 06:13:51;;;;;;;16.75;9.43;;;;;;;9.30;100.00;102746.78;4955008;28;20303;-71
2022/04/30 06:16:17;;;;;;;17.35;10.07;;;;;;;9.13;100.00;102750.34;4966892;28;21112;-72
2022/04/30 06:18:43;;;;;;;16.95;9.18;;;;;;;9.02;100.00;102753.28;4953844;28;20053;-71
2022/04/30 06:21:08;;;;;;;19.13;10.45;;;;;;;8.93;100.00;102749.69;4967545;28;20093;-71
2022/04/30 06:23:33;;;;;;;18.02;10.75;;;;;;;8.84;100.00;102751.47;4962675;28;20099;-71
2022/04/30 06:25:59;;;;;;;21.52;11.75;;;;;;;8.83;100.00;102755.16;4954174;28;20075;-71
2022/04/30 06:28:25;;;;;;;18.30;10.10;;;;;;;8.77;100.00;102749.53;4969130;28;20667;-71
2022/04/30 06:30:50;;;;;;;19.63;10.18;;;;;;;8.82;100.00;102747.25;4952151;28;20107;-71
2022/04/30 06:33:15;;;;;;;14.07;8.52;;;;;;;8.82;100.00;102745.41;4968797;28;20473;-71
2022/04/30 06:35:41;;;;;;;12.50;7.80;;;;;;;8.88;100.00;102751.13;4953531;28;20595;-71
2022/04/30 06:38:06;;;;;;;24.38;10.73;;;;;;;8.88;100.00;102753.84;4968854;28;20039;-71
2022/04/30 06:40:32;;;;;;;14.25;9.40;;;;;;;8.95;100.00;102746.84;4951541;28;20050;-71
2022/04/30 06:42:58;;;;;;;18.10;10.10;;;;;;;9.08;100.00;102742.75;4968855;28;20033;-71
2022/04/30 06:45:23;;;;;;;13.45;7.82;;;;;;;9.19;100.00;102747.03;4967330;28;20565;-71
2022/04/30 06:47:49;;;;;;;14.55;7.78;;;;;;;9.41;100.00;102747.53;4950074;28;20107;-71
2022/04/30 06:50:14;;;;;;;14.50;8.30;;;;;;;9.59;100.00;102744.78;4950827;28;20352;-71
2022/04/30 06:57:07;;;;;;;13.88;7.15;;;;;;;9.64;100.00;102737.88;4951362;28;20164;-71
2022/04/30 06:58:09;;;;;;;12.10;6.85;;;;;;;9.80;100.00;102743.34;4953924;28;21045;-71
2022/04/30 07:03:22;;;;;;;15.50;6.32;;;;;;;9.99;100.00;102736.03;4954704;28;20064;-71
2022/04/30 07:05:49;;;;;;;12.07;5.90;;;;;;;10.03;100.00;102734.69;4970493;28;20087;-71
2022/04/30 07:08:15;;;;;;;13.07;6.45;;;;;;;10.03;100.00;102740.06;4955424;28;20505;-71
2022/04/30 07:10:40;;;;;;;10.68;6.47;;;;;;;10.00;100.00;102733.19;4953076;28;20080;-71
2022/04/30 07:13:06;;;;;;;12.85;7.03;;;;;;;10.06;100.00;102736.22;4967873;28;20033;-71
2022/04/30 07:15:31;;;;;;;23.95;9.98;;;;;;;10.14;100.00;102739.75;4956651;28;20061;-71
2022/04/30 07:17:57;;;;;;;14.02;7.80;;;;;;;10.24;100.00;102735.09;4957119;28;20528;-72
2022/04/30 07:20:22;;;;;;;12.13;6.65;;;;;;;10.27;100.00;102734.78;4936220;28;20041;-72
2022/04/30 07:22:47;;;;;;;12.55;6.40;;;;;;;10.36;100.00;102737.53;4971452;28;20063;-72
2022/04/30 07:25:14;;;;;;;13.40;6.82;;;;;;;10.38;100.00;102739.03;4954536;28;20093;-72
2022/04/30 07:27:39;;;;;;;17.33;7.10;;;;;;;10.43;100.00;102739.38;4959180;28;20029;-72
2022/04/30 07:30:08;;;;;;;12.68;6.57;;;;;;;10.39;100.00;102742.56;4958450;28;20058;-73
2022/04/30 07:32:34;;;;;;;12.27;5.22;;;;;;;10.52;100.00;102742.94;4976297;28;20597;-73
2022/04/30 07:34:59;;;;;;;9.98;5.15;;;;;;;10.60;100.00;102742.09;4972469;28;20040;-72
2022/04/30 07:37:24;;;;;;;11.57;4.95;;;;;;;10.75;100.00;102746.66;4937776;28;20060;-72
2022/04/30 07:39:50;;;;;;;10.50;5.22;;;;;;;10.84;100.00;102735.88;4953323;28;20033;-72
2022/04/30 07:42:15;;;;;;;9.77;5.40;;;;;;;10.98;100.00;102743.28;4939447;28;20056;-72
2022/04/30 07:44:41;;;;;;;13.30;6.53;;;;;;;11.09;100.00;102739.41;4972307;28;20037;-72
2022/04/30 07:47:06;;;;;;;9.73;5.03;;;;;;;11.29;100.00;102745.28;4954057;28;20053;-73
2022/04/30 07:49:32;;;;;;;9.98;5.47;;;;;;;11.45;100.00;102748.81;4971397;28;20044;-72
2022/04/30 07:51:57;;;;;;;8.50;4.97;;;;;;;11.40;100.00;102742.22;4948170;28;20033;-72
2022/04/30 07:54:26;;;;;;;10.90;5.32;;;;;;;11.46;100.00;102749.63;4958578;28;20110;-72
2022/04/30 07:56:56;;;;;;;10.85;4.85;;;;;;;11.59;100.00;102741.84;4969640;28;20121;-73
2022/04/30 07:59:22;;;;;;;12.20;4.95;;;;;;;11.61;100.00;102747.91;4939731;28;20096;-73
2022/04/30 08:01:48;;;;;;;11.05;5.97;;;;;;;11.79;100.00;102742.28;4972202;28;20049;-72
2022/04/30 08:04:14;;;;;;;11.43;5.07;;;;;;;11.87;100.00;102736.06;4935893;28;20062;-73
2022/04/30 08:06:39;;;;;;;11.23;5.38;;;;;;;11.99;100.00;102737.34;4971394;28;20061;-72
2022/04/30 08:09:05;;;;;;;17.17;6.15;;;;;;;12.24;100.00;102739.91;4953203;28;20079;-72
2022/04/30 08:11:30;;;;;;;11.55;6.18;;;;;;;12.30;100.00;102741.91;4970880;28;20068;-74
2022/04/30 08:13:56;;;;;;;13.57;6.03;;;;;;;12.16;100.00;102738.94;4967721;28;20127;-73
2022/04/30 08:16:21;;;;;;;10.68;5.13;;;;;;;12.09;100.00;102737.13;4955608;28;20136;-73
2022/04/30 08:18:46;;;;;;;10.32;6.00;;;;;;;12.06;100.00;102743.72;4971791;28;20369;-73
2022/04/30 08:21:12;;;;;;;9.70;5.60;;;;;;;12.02;100.00;102742.38;4954621;28;20057;-74
2022/04/30 08:23:37;;;;;;;9.57;6.10;;;;;;;11.97;100.00;102733.13;4972230;28;20359;-72
2022/04/30 08:26:03;;;;;;;10.80;5.90;;;;;;;12.06;100.00;102741.00;4937959;28;20144;-73
2022/04/30 08:28:29;;;;;;;9.50;4.88;;;;;;;12.10;100.00;102736.94;4970881;28;20127;-72
2022/04/30 08:30:55;;;;;;;10.48;5.95;;;;;;;12.06;100.00;102732.91;4937913;28;20825;-72
2022/04/30 08:33:20;;;;;;;11.73;5.78;;;;;;;12.00;100.00;102739.00;4951543;28;20060;-72
2022/04/30 08:35:46;;;;;;;10.65;5.72;;;;;;;11.72;100.00;102738.59;4955008;28;20046;-73
2022/04/30 08:38:12;;;;;;;17.27;5.72;;;;;;;11.66;100.00;102736.59;4931769;28;20084;-73
2022/04/30 08:40:39;;;;;;;14.32;6.03;;;;;;;11.68;100.00;102730.00;4962732;28;20049;-72
2022/04/30 08:43:10;;;;;;;11.77;6.00;;;;;;;11.75;100.00;102729.31;4917962;28;20049;-73
2022/04/30 08:45:36;;;;;;;10.32;5.40;;;;;;;11.74;100.00;102733.03;4949344;28;20091;-72
2022/04/30 08:48:05;;;;;;;14.63;6.40;;;;;;;11.70;100.00;102727.97;4932778;28;23707;-72
2022/04/30 08:50:31;;;;;;;10.90;6.00;;;;;;;11.79;100.00;102730.63;4947435;28;20041;-73
2022/04/30 08:52:57;;;;;;;9.50;5.68;;;;;;;11.64;100.00;102736.75;4958720;28;20219;-73
2022/04/30 08:55:22;;;;;;;12.57;5.90;;;;;;;11.55;100.00;102724.31;4953064;28;20130;-73
2022/04/30 08:57:48;;;;;;;11.65;5.88;;;;;;;11.47;100.00;102729.72;4964007;28;20041;-73
2022/04/30 09:00:14;;;;;;;12.43;6.03;;;;;;;11.49;100.00;102727.72;4948787;28;20582;-72
2022/04/30 09:02:51;;;;;;;12.95;6.30;;;;;;;11.30;100.00;102726.25;4963290;28;20477;-72
2022/04/30 09:05:17;;;;;;;12.27;5.90;;;;;;;11.22;100.00;102721.69;4932457;28;20561;-72
2022/04/30 09:07:55;;;;;;;8.80;5.47;;;;;;;11.27;100.00;102725.72;4951347;28;20053;-73
2022/04/30 09:10:31;;;;;;;12.25;5.70;;;;;;;11.11;100.00;102726.59;4953643;28;20080;-75
2022/04/30 09:13:10;;;;;;;9.18;6.05;;;;;;;11.16;100.00;102726.91;4953459;28;21224;-73
2022/04/30 09:15:37;;;;;;;12.95;6.93;;;;;;;10.97;100.00;102720.03;4954156;28;20049;-72
2022/04/30 09:18:04;;;;;;;10.40;6.20;;;;;;;11.08;100.00;102729.63;4966464;28;20120;-73
2022/04/30 09:20:32;;;;;;;10.90;5.93;;;;;;;11.09;100.00;102724.09;4952017;28;20068;-73
2022/04/30 09:22:57;;;;;;;11.77;6.55;;;;;;;11.20;100.00;102726.44;4953673;28;20144;-73
2022/04/30 09:25:23;;;;;;;9.60;5.60;;;;;;;11.29;100.00;102724.53;4967166;28;20085;-73
2022/04/30 09:27:51;;;;;;;13.55;6.45;;;;;;;11.33;100.00;102725.03;4957511;28;20057;-73
2022/04/30 09:30:18;;;;;;;11.48;6.10;;;;;;;11.43;100.00;102725.69;4970606;28;20033;-73
2022/04/30 09:32:44;;;;;;;10.25;5.65;;;;;;;11.59;100.00;102720.25;4956311;28;20485;-75
2022/04/30 09:38:03;;;;;;;17.42;7.28;;;;;;;11.49;100.00;102730.41;4952770;28;20120;-74
2022/04/30 09:40:29;;;;;;;14.75;6.30;;;;;;;11.48;100.00;102731.44;4970742;28;20056;-74
2022/04/30 09:42:54;;;;;;;11.25;6.10;;;;;;;11.40;100.00;102726.03;4962079;28;20052;-73
2022/04/30 09:45:24;;;;;;;11.25;5.90;;;;;;;11.24;100.00;102718.84;4956300;28;20529;-74
2022/04/30 09:47:51;;;;;;;10.80;5.85;;;;;;;11.20;100.00;102723.72;4954669;28;20032;-74
2022/04/30 09:55:59;;;;;;;17.40;6.95;;;;;;;11.16;100.00;102719.69;4908692;28;20059;-74
2022/04/30 09:58:28;;;;;;;12.40;7.13;;;;;;;11.05;100.00;102717.31;4968930;28;20033;-74
2022/04/30 10:00:58;;;;;;;14.05;6.90;;;;;;;10.92;100.00;102711.63;4939450;28;20049;-75
2022/04/30 10:03:29;;;;;;;14.30;7.20;;;;;;;10.69;100.00;102723.06;4969262;28;20029;-73
2022/04/30 10:05:59;;;;;;;11.35;6.85;;;;;;;10.65;100.00;102716.34;4937950;28;20069;-73
2022/04/30 10:08:25;;;;;;;13.32;7.18;;;;;;;10.57;100.00;102718.19;4969391;28;20073;-74
2022/04/30 10:10:54;;;;;;;10.15;7.30;;;;;;;10.43;100.00;102717.00;4936186;28;20738;-74
2022/04/30 10:13:37;;;;;;;13.35;7.28;;;;;;;10.47;100.00;102712.97;4952468;28;20037;-73
2022/04/30 10:16:04;;;;;;;17.05;7.68;;;;;;;10.30;100.00;102709.38;4961554;28;20167;-73
2022/04/30 10:18:42;;;;;;;15.07;7.60;;;;;;;10.21;100.00;102716.59;4957762;28;20087;-74
2022/04/30 10:21:28;;;;;;;14.25;8.32;;;;;;;10.22;100.00;102715.56;4953500;28;20591;-74
2022/04/30 10:24:00;;;;;;;14.77;8.25;;;;;;;10.35;100.00;102703.50;4938166;28;20045;-73
2022/04/30 10:26:26;;;;;;;12.47;7.37;;;;;;;10.45;100.00;102709.56;4951671;28;20037;-73
2022/04/30 10:29:02;;;;;;;11.68;7.22;;;;;;;10.54;100.00;102707.75;4952635;28;20320;-73
2022/04/30 10:31:27;;;;;;;14.98;8.52;;;;;;;10.51;100.00;102698.13;4952534;28;20140;-73
2022/04/30 10:33:53;;;;;;;12.93;8.15;;;;;;;10.49;100.00;102701.00;4953920;28;20050;-73
2022/04/30 10:36:21;;;;;;;22.95;8.20;;;;;;;10.54;100.00;102697.81;4969480;28;20041;-73
2022/04/30 10:39:02;;;;;;;13.88;7.93;;;;;;;10.62;100.00;102699.66;4951938;28;20065;-73
2022/04/30 10:41:27;;;;;;;13.52;7.72;;;;;;;10.63;100.00;102693.25;4968031;28;20045;-73
2022/04/30 10:44:00;;;;;;;15.32;8.68;;;;;;;10.64;100.00;102682.31;4954891;28;20599;-73
2022/04/30 10:46:26;;;;;;;13.48;8.05;;;;;;;10.80;100.00;102686.00;4967369;28;20037;-73
2022/04/30 10:48:51;;;;;;;19.83;10.15;;;;;;;10.86;100.00;102688.03;4969526;28;20104;-73
2022/04/30 10:51:40;;;;;;;15.63;7.80;;;;;;;10.93;100.00;102683.66;4936421;28;20054;-73
2022/04/30 10:54:19;;;;;;;13.07;7.25;;;;;;;10.99;100.00;102681.09;4953719;28;20033;-73
2022/04/30 10:56:45;;;;;;;13.38;6.90;;;;;;;11.11;100.00;102684.28;4935999;28;20053;-74
2022/04/30 10:59:21;;;;;;;14.05;6.63;;;;;;;11.25;100.00;102676.50;4952594;28;20112;-72
2022/04/30 11:01:50;;;;;;;8.20;6.20;;;;;;;11.31;100.00;102678.53;4935128;28;20053;-73
2022/04/30 11:04:17;;;;;;;10.93;6.68;;;;;;;11.39;100.00;102678.50;4951690;28;20040;-74
2022/04/30 11:06:43;;;;;;;14.10;7.35;;;;;;;11.44;100.00;102674.25;4936633;28;20049;-74
2022/04/30 11:09:08;;;;;;;9.23;6.45;;;;;;;11.51;100.00;102668.16;4967343;28;20493;-73
2022/04/30 11:11:35;;;;;;;10.98;5.70;;;;;;;11.69;100.00;102668.78;4951567;28;20127;-73
2022/04/30 11:14:09;;;;;;;13.63;6.07;;;;;;;11.82;100.00;102670.88;4962966;28;20042;-73
2022/04/30 11:16:36;;;;;;;7.22;5.80;;;;;;;11.88;100.00;102662.94;4950743;28;20124;-73
2022/04/30 11:19:12;;;;;;;9.95;5.72;;;;;;;11.89;100.00;102661.09;4933767;28;20054;-73
2022/04/30 11:21:39;;;;;;;10.65;6.45;;;;;;;11.84;100.00;102664.34;4942835;28;20045;-73
2022/04/30 11:24:05;;;;;;;9.02;5.97;;;;;;;11.96;100.00;102666.63;4928300;28;20054;-73
2022/04/30 11:26:38;;;;;;;11.15;4.60;;;;;;;12.01;100.00;102665.09;4946243;28;20220;-73
2022/04/30 11:29:08;;;;;;;7.25;4.07;;;;;;;12.01;100.00;102654.28;4929892;28;20065;-73
2022/04/30 11:31:34;;;;;;;11.38;4.43;;;;;;;12.11;100.00;102654.91;4945612;28;20038;-73
2022/04/30 11:34:12;;;;;;;7.10;4.32;;;;;;;12.12;100.00;102653.88;4942183;28;20061;-73
2022/04/30 11:36:44;;;;;;;6.05;4.20;;;;;;;12.07;100.00;102653.53;4958193;28;20038;-73
2022/04/30 11:39:10;;;;;;;6.88;4.60;;;;;;;12.28;100.00;102652.06;4925413;28;20486;-73
2022/04/30 11:41:40;;;;;;;13.13;5.53;;;;;;;12.38;100.00;102649.97;4957747;28;20034;-73
2022/04/30 11:44:05;;;;;;;7.82;4.60;;;;;;;12.40;100.00;102647.94;4943406;28;20430;-73